Messwerte Korfu

Temperatur

Temperatur
°C
1618804800 7.00 7.00 12
1618808400 8.00 8.00 12
1618812000 9.00 9.00 12
1618815600 10.00 10.00 14
1618819200 11.00 11.00 14
1618822800 12.00 12.00 11
1618826400 13.00 13.00 11
1618830000 14.00 14.00 13
1618833600 15.00 15.00 15
1618837200 16.00 16.00 15
1618840800 17.00 17.00 15
1618844400 18.00 18.00 15
1618848000 19.00 19.00 15
1618851600 20.00 20.00 14
1618855200 21.00 21.00 11
1618858800 22.00 22.00 10
1618862400 23.00 23.00 10
1618866000 0.00 0.00 9
1618869600 1.00 1.00
1618873200 2.00 2.00
1618876800 3.00 3.00 9
1618880400 4.00 4.00
1618884000 5.00 5.00
1618887600 6.00 6.00 10

Aktuellste Messwerte

Wettercharakter
Wetter: wolkig, aber kaum Regen
Temperatur
10 °C
Feuchtigkeit
75 %
Luftdruck
1014 hPa
Messzeit: 20. April 2021, 7.00Datenquelle: METAR

Weitere Messstationen in der Nähe

Messstation Temperatur Entfernung
Ioannina 5 °C 78 km
Aktion 8 °C 133 km
S.Maria Leuca - 135 km
Lecce 5 °C 167 km
Kozani 3 °C 177 km
Ohrid - 184 km
Tirana 9 °C 191 km

Wind

Windrichtung Böen Mittelwind
° km/h km/h
1618804800 7.00 6.00 - 7.00 190° 5
1618808400 8.00 7.00 - 8.00 0
1618812000 9.00 8.00 - 9.00 220° 5
1618815600 10.00 9.00 - 10.00 130° 10
1618819200 11.00 10.00 - 11.00 20° 20
1618822800 12.00 11.00 - 12.00 10° 20
1618826400 13.00 12.00 - 13.00 20° 10
1618830000 14.00 13.00 - 14.00
1618833600 15.00 14.00 - 15.00 120° 10
1618837200 16.00 15.00 - 16.00
1618840800 17.00 16.00 - 17.00
1618844400 18.00 17.00 - 18.00 220° 10
1618848000 19.00 18.00 - 19.00 240° 10
1618851600 20.00 19.00 - 20.00
1618855200 21.00 20.00 - 21.00
1618858800 22.00 21.00 - 22.00
1618862400 23.00 22.00 - 23.00
1618866000 0.00 23.00 - 0.00
1618869600 1.00 0.00 - 1.00
1618873200 2.00 1.00 - 2.00
1618876800 3.00 2.00 - 3.00
1618880400 4.00 3.00 - 4.00
1618884000 5.00 4.00 - 5.00
1618887600 6.00 5.00 - 6.00

Ihre Wetterstation

Fehlt Ihre Wetterstation auf unserem Portal?

Schreiben Sie an network@meteonews.ch

Klima

Wann ist es am wärmsten? Wann regnet es am wenigsten? Unsere Klimadaten geben Auskunft.